Nobleford, Canada
Current Conditions -  °F | °C
As of 7:00 AM on Saturday 25 Oct 2014 (Local Time) from CYQL Reporting Station
Broken Clouds Broken Clouds  
Wind Chill: 37°   Ceiling: 7500
Heat Index: 37°   Visibility: 25mi
Dew Point: 32°   Wind: 2mph
Humidity: 81%   Direction: 70°ENE
Pressure: 29.98"   Gusts: NA
Location:  49.88°N, 113.05°W
Report Text: CYQL 251300Z 07002KT 25SM BKN075 BKN140 03/00 A2998 RMK AC5AC2 SLP174
Loading
Personal Weather Stations






























Interactive Weather Map
Tropical Storm Tracking
New forecast layout! Learn more

10-Day Weather Forecast

Advertisements
Track Severe Weather on mobile